Arbyrd, Missouri
Current Conditions -  °F | °C
As of 5:53 PM on Sunday 21 Dec 2014 (Local Time) from KHKA Reporting Station
Clear Clear  
Wind Chill: 36°   Ceiling: Unl
Heat Index: 41°   Visibility: 10mi
Dew Point: 35°   Wind: 7mph
Humidity: 79%   Direction: 80°E
Pressure: 30.03"   Gusts: NA
Location:  36.05°N, 90.24°W
Report Text: KHKA 212353Z AUTO 08006KT 10SM CLR 05/02 A3003 RMK AO2 SLP170 T00500017 10117 20050 56012
Loading
Personal Weather Stations






























Interactive Weather Map New forecast layout! Learn more

10-Day Weather Forecast

Advertisements
Track Severe Weather on mobile